الصفحة الرئيسية
METAR-TAF:

METAR-TAF

مطار :

بليثي, كاليفورنيا, الولايات المتحدة

دائرة عرض: 33-37-09N, خط طول: 114-43-01W, ارتفاع: 121 متر

مراقبة الطقس الحالي

تاريخ ووقت الإصدار 1ساعة و 0 دقيقة قبل الساعة 15:52UTC
ريح 13 عقدة من الجنوب
درجة الحرارة 33°درجة مئوية
الرطوبة 44%
ضغط 1008 hPa
الرؤية: 16.1 كم
سماء صافية

METAR: KBLH 171552Z AUTO 17013KT 10SM CLR 33/19 A2978 RMK AO2 SLP075 T03280189

زمن: 09:52 (16:52 UTC)

توقعات

تاريخ ووقت الإصدار 5ساعات و 21 دقيقة قبل الساعة 11:31UTC
التوقعات صالحة من17 الساعة 12 UTC إلى 18 الساعة 12 UTC
ريح 12 عقدة من الجنوب
الرؤية: 10 كم
سماء صافية
مؤقت
من 17 الساعة 12 UTC إلى 17 الساعة 15 UTC
ريح 5 عقدةمن اتجاهات متغيرة
من 18 الساعة 0300 UTC
ريح 12 عقدة من الجنوب الغربي
الرؤية: 10 كم
سماء صافية
من 18 الساعة 0900 UTC
ريح 8 عقدة من الجنوب
الرؤية: 10 كم
سماء صافية

TAF: KBLH 171131Z 1712/1812 19012KT P6SM SKC TEMPO 1712/1715 VRB05KT FM180300 23012KT P6SM SKC FM180900 18008KT P6SM SKC

أرصاد الطقس والتوقعات من أكثر من 4000 مطار (تقارير الطقس للمطار METAR والتنبؤ بالطقس بالمطارTAF).

المحطات المتاحة هي النقط الصفراء والحمراء على الخريطة.

حرك المؤشر فوق النقطة لمعرفة اسم المحطة.

ثم انقر لمعرفة أرصاد وتوقعات الطقس.

لتغيير الخارطة: اضغط على الأزرار الخضراء مع رمز الصليب الأسود للتكبير. على الزر الأخضر مع شرطة للتصغير، أو على الأسهم الخضراء للخرائط المجاورة.


METAR-TAF: